In Rescue
 
Open Full Screen Window  High Contrast Mode
Wind Gusting 00 knots
07
May 25, 2022 10:06 PM EDT
Weather Information
Wind Direction
  160 °
Wind Speed
  07 kt (8 mph)
Wind Gust
  00 kt (0 mph)
Altimeter
29.88 in
Visibility
10 SM
Temperature
21° C
70° F
Dewpoint
18° C
64° F
Humidity
83%
Sky Condition
Overcast @ 10,000 ft
VFR

METAR KHAI 260206Z AUTO 16007KT 10SM OVC100 21/18 A2988 RMK AO2 T02080184

FAA Disclaimer: The data displayed is for advisory purposes only and is not to be used for flight planning or operations.